Long Island Mac Arthur Airport
KISP : now visible

Airfield :











YOU CAN JOIN US ON...

 
LOGIN :

Register | Disclaimer

   EN    FR    IT 

 









Legend :    VFR   Marginal VFR   IFR   Intensive IFR   Very Intensive IFR
Visi :
Ceiling :
>= 8 km
>= 3000ft
5 to 8 km
1000 to 3000 ft
1500m to 5 km
500 to 1000 ft
800 to 1500m
200 to 500 ft
< 800m
< 200 ft
Symbols :   Thunderstorms  Fog  Heavy snow  Heavy precipitations  Wind > 20 kt






- Airport Elevation : 99 ft
- IATA code : ISP


KISP - Long Island Mac Arthur

CURRENT METAR :
  • 241139Z 00000KT 1/4SM R06/1200V1800FT FZFG VV001 M01/M01 A3006 RMK AO2 T10111011

EXPIRED METARs :
  • 241128Z 00000KT 1/4SM R06/1200V3000FT FZFG VV001 M01/M01 A3006 RMK AO2 T10061006
  • 241056Z 00000KT 1/4SM R06/1000V1400FT FZFG VV001 M01/M01 A3006 RMK AO2 SLP181 I1001 T10061006
  • 241011Z AUTO 00000KT 1/4SM R06/1600V2200FT FZFG VV001 M01/M01 A3007 RMK AO2 I1001 T10061006
  • 240956Z AUTO 13003KT 1/4SM R06/1400V2200FT FZFG VV002 M01/M01 A3007 RMK AO2 SLP182 T10061006
  • 240937Z AUTO 00000KT 3/4SM R06/1600VP6000FT BR SCT003 SCT080 01/01 A3007 RMK AO2 T00110011
  • 240933Z AUTO 00000KT 1 3/4SM R06/3000VP6000FT BR SCT003 02/02 A3007 RMK AO2 T00170017
  • 240856Z AUTO 17004KT 6SM BR OVC100 03/03 A3007 RMK AO2 SLP181 T00280028 58010

TAF KISP
Valid from the 24 at 12:00 until the 25 at 12:00 UTC


241126Z 2412/2512 VRB02KT 1/4SM FZFG VV002
FM241300 VRB04KT P6SM SKC
TEMPO 2413/2414 3SM BR
FM241500 20006KT P6SM SCT250
FM241800 19009KT P6SM BKN250
FM242300 19006KT P6SM BKN150
FM250200 VRB03KT P6SM OVC100
FM250800 VRB03KT P6SM SCT025 OVC050



MET'MAP, your aeronautical weather chart ! - Copyright ORBIFLY December 2007 - Disclaimer

ORBIFLY MET'MAP TEAM :

Programming & Development : Alexandra Zaïnal
Concept & original design : Baudouin d'Aumeries
Assistance for programming : Marc-Olivier Méhu
Technical & hardware support : Manuel Goepfert

Contact : metmap@orbifly.com




SOURCES & CREDITS :

   NOAA       Earth
Advisory